createdAt,value
2018-09-20T00:00:55.941Z,10.50
2018-09-20T00:03:24.424Z,12.23
2018-09-20T00:05:52.581Z,10.93
2018-09-20T00:08:20.649Z,11.77
2018-09-20T00:10:48.755Z,8.00
2018-09-20T00:13:16.851Z,9.03
2018-09-20T00:15:44.864Z,12.50
2018-09-20T00:18:12.996Z,10.73
2018-09-20T00:20:41.042Z,9.20
2018-09-20T00:23:09.206Z,12.27
2018-09-20T00:25:37.266Z,14.07
2018-09-20T00:28:06.059Z,11.80
2018-09-20T00:30:34.126Z,9.77
2018-09-20T00:33:03.329Z,10.83
2018-09-20T00:35:31.320Z,10.57
2018-09-20T00:37:59.723Z,12.23
2018-09-20T00:40:27.795Z,10.37
2018-09-20T00:42:55.812Z,11.13
2018-09-20T00:45:23.836Z,12.40
2018-09-20T00:47:52.118Z,8.10
2018-09-20T00:50:20.217Z,10.83
2018-09-20T00:52:48.348Z,15.97
2018-09-20T00:55:16.440Z,8.13
2018-09-20T00:57:44.428Z,11.63
2018-09-20T01:00:12.460Z,13.20
2018-09-20T01:02:40.548Z,15.13
2018-09-20T01:05:08.728Z,11.17
2018-09-20T01:07:36.911Z,10.93
2018-09-20T01:10:05.174Z,12.17
2018-09-20T01:12:33.226Z,9.53
2018-09-20T01:15:01.215Z,12.87
2018-09-20T01:17:29.212Z,16.83
2018-09-20T01:19:57.486Z,9.57
2018-09-20T01:22:25.580Z,12.33
2018-09-20T01:24:53.810Z,11.40
2018-09-20T01:27:21.870Z,9.50
2018-09-20T01:29:50.037Z,14.93
2018-09-20T01:32:18.230Z,15.00
2018-09-20T01:34:46.330Z,11.50
2018-09-20T01:37:14.268Z,8.03
2018-09-20T01:39:42.211Z,14.37
2018-09-20T01:42:10.210Z,11.60
2018-09-20T01:44:38.240Z,11.20
2018-09-20T01:47:12.714Z,12.57
2018-09-20T01:49:40.971Z,12.53
2018-09-20T01:52:08.942Z,11.97
2018-09-20T01:54:36.870Z,14.63
2018-09-20T01:57:04.842Z,15.53
2018-09-20T01:59:32.881Z,11.40
2018-09-20T02:02:00.968Z,15.07
2018-09-20T02:04:29.106Z,12.27
2018-09-20T02:06:57.077Z,11.50
2018-09-20T02:09:25.131Z,13.13
2018-09-20T02:11:53.239Z,10.30
2018-09-20T02:14:21.405Z,14.73
2018-09-20T02:16:49.411Z,9.10
2018-09-20T02:19:17.382Z,13.17
2018-09-20T02:21:45.327Z,13.13
2018-09-20T02:24:13.277Z,10.90
2018-09-20T02:26:41.321Z,12.00
2018-09-20T02:29:10.143Z,13.70
2018-09-20T02:31:38.295Z,14.27
2018-09-20T02:34:06.464Z,9.03
2018-09-20T02:36:34.708Z,10.77
2018-09-20T02:39:03.030Z,17.30
2018-09-20T02:41:30.988Z,15.53
2018-09-20T02:44:01.632Z,15.37
2018-09-20T02:46:30.022Z,16.10
2018-09-20T02:48:58.164Z,14.77
2018-09-20T02:51:26.187Z,15.60
2018-09-20T02:53:54.257Z,12.53
2018-09-20T02:56:22.436Z,14.30
2018-09-20T02:58:50.677Z,13.80
2018-09-20T03:01:18.868Z,14.43
2018-09-20T03:03:46.982Z,9.33
2018-09-20T03:06:15.113Z,13.63
2018-09-20T03:08:43.189Z,15.07
2018-09-20T03:11:11.433Z,12.83
2018-09-20T03:13:39.371Z,18.07
2018-09-20T03:16:07.367Z,15.53
2018-09-20T03:18:35.391Z,11.90
2018-09-20T03:21:03.713Z,12.03
2018-09-20T03:23:31.852Z,12.73
2018-09-20T03:26:00.111Z,12.00
2018-09-20T03:28:28.163Z,15.87
2018-09-20T03:30:56.436Z,16.27
2018-09-20T03:33:24.593Z,9.33
2018-09-20T03:35:53.577Z,13.73
2018-09-20T03:38:21.675Z,13.80
2018-09-20T03:40:49.760Z,11.10
2018-09-20T03:43:17.833Z,13.40
2018-09-20T03:45:46.014Z,12.93
2018-09-20T03:48:14.258Z,15.70
2018-09-20T03:50:42.371Z,14.90
2018-09-20T03:53:10.440Z,11.63
2018-09-20T03:55:38.600Z,13.90
2018-09-20T03:58:06.879Z,11.97
2018-09-20T04:00:35.006Z,14.00
2018-09-20T04:03:03.175Z,8.97
2018-09-20T04:05:31.300Z,19.40
2018-09-20T04:07:59.545Z,10.67
2018-09-20T04:10:27.680Z,10.77
2018-09-20T04:12:55.672Z,12.50
2018-09-20T04:15:23.944Z,10.03
2018-09-20T04:17:52.040Z,7.53
2018-09-20T04:20:20.205Z,12.67
2018-09-20T04:22:48.324Z,10.07
2018-09-20T04:25:16.540Z,13.77
2018-09-20T04:27:44.481Z,10.30
2018-09-20T04:30:12.957Z,10.60
2018-09-20T04:32:41.018Z,10.00
2018-09-20T04:35:10.443Z,11.57
2018-09-20T04:37:38.629Z,10.83
2018-09-20T04:40:07.051Z,11.17
2018-09-20T04:42:35.320Z,14.27
2018-09-20T04:45:03.709Z,11.23
2018-09-20T04:47:32.083Z,10.57
2018-09-20T04:50:00.282Z,11.50
2018-09-20T04:52:28.485Z,14.07
2018-09-20T04:54:56.749Z,11.97
2018-09-20T04:57:25.038Z,13.50
2018-09-20T04:59:54.274Z,9.23
2018-09-20T05:02:22.930Z,8.43
2018-09-20T05:04:51.288Z,11.00
2018-09-20T05:07:19.565Z,12.23
2018-09-20T05:09:47.806Z,8.53
2018-09-20T05:12:16.084Z,10.70
2018-09-20T05:14:44.224Z,12.10
2018-09-20T05:17:12.528Z,12.30
2018-09-20T05:19:40.707Z,11.97
2018-09-20T05:22:08.946Z,10.90
2018-09-20T05:24:37.512Z,10.13
2018-09-20T05:27:05.579Z,9.90
2018-09-20T05:29:33.775Z,13.43
2018-09-20T05:32:01.969Z,11.40
2018-09-20T05:34:30.282Z,9.27
2018-09-20T05:36:58.532Z,12.27
2018-09-20T05:39:26.740Z,11.23
2018-09-20T05:41:54.925Z,12.27
2018-09-20T05:44:23.502Z,13.70
2018-09-20T05:46:51.876Z,12.47
2018-09-20T05:49:20.052Z,9.47
2018-09-20T05:51:48.307Z,10.47
2018-09-20T05:54:16.464Z,17.70
2018-09-20T05:56:44.851Z,9.93
2018-09-20T05:59:13.098Z,10.10
2018-09-20T06:01:41.226Z,11.87
2018-09-20T06:04:09.339Z,9.53
2018-09-20T06:06:37.562Z,10.43
2018-09-20T06:09:08.334Z,11.13
2018-09-20T06:11:36.594Z,12.93
2018-09-20T06:14:04.845Z,11.87
2018-09-20T06:16:33.135Z,12.27
2018-09-20T06:19:01.646Z,14.47
2018-09-20T06:21:29.895Z,14.07
2018-09-20T06:23:58.049Z,14.27
2018-09-20T06:26:26.339Z,8.57
2018-09-20T06:28:54.538Z,13.60
2018-09-20T06:31:22.767Z,9.93
2018-09-20T06:33:50.846Z,9.63
2018-09-20T06:36:19.115Z,11.30
2018-09-20T06:38:47.312Z,14.43
2018-09-20T06:41:15.638Z,11.60
2018-09-20T06:43:43.933Z,11.63
2018-09-20T06:46:12.849Z,13.20
2018-09-20T06:48:41.149Z,8.33
2018-09-20T06:51:09.297Z,11.60
2018-09-20T06:53:37.743Z,13.60
2018-09-20T06:56:05.967Z,10.67
2018-09-20T06:58:35.099Z,13.17
2018-09-20T07:01:03.284Z,9.13
2018-09-20T07:03:31.683Z,9.63
2018-09-20T07:05:59.940Z,10.27
2018-09-20T07:08:28.257Z,11.50
2018-09-20T07:10:57.042Z,12.13
2018-09-20T07:13:25.383Z,21.13
2018-09-20T07:15:53.553Z,10.63
2018-09-20T07:18:21.869Z,7.00
2018-09-20T07:20:50.251Z,9.07
2018-09-20T07:23:18.618Z,11.43
2018-09-20T07:25:47.161Z,9.23
2018-09-20T07:28:16.342Z,9.23
2018-09-20T07:30:44.613Z,10.00
2018-09-20T07:33:12.832Z,11.77
2018-09-20T07:35:41.009Z,9.77
2018-09-20T07:38:09.271Z,11.03
2018-09-20T07:40:37.462Z,10.97
2018-09-20T07:43:05.741Z,9.60
2018-09-20T07:45:34.098Z,11.70
2018-09-20T07:48:02.357Z,9.97
2018-09-20T07:50:30.999Z,12.70
2018-09-20T07:52:59.238Z,10.17
2018-09-20T07:55:27.414Z,11.53
2018-09-20T07:57:56.596Z,11.73
2018-09-20T08:00:24.837Z,9.70
2018-09-20T08:02:53.109Z,7.90
2018-09-20T08:05:21.396Z,10.87
2018-09-20T08:07:49.633Z,11.57
2018-09-20T08:10:18.110Z,8.40
2018-09-20T08:12:46.260Z,10.93
2018-09-20T08:15:14.366Z,7.97
2018-09-20T08:17:42.793Z,9.97
2018-09-20T08:20:11.298Z,7.63
2018-09-20T08:22:39.558Z,11.17
2018-09-20T08:25:07.998Z,11.63
2018-09-20T08:27:36.159Z,7.93
2018-09-20T08:30:07.287Z,13.07
2018-09-20T08:32:35.595Z,12.60
2018-09-20T08:35:04.920Z,9.10
2018-09-20T08:37:33.323Z,11.77
2018-09-20T08:40:01.608Z,9.90
2018-09-20T08:42:29.856Z,6.77
2018-09-20T08:44:58.136Z,11.10
2018-09-20T08:47:26.352Z,8.47
2018-09-20T08:49:54.596Z,8.80
2018-09-20T08:52:22.888Z,12.17
2018-09-20T08:54:51.128Z,10.03
2018-09-20T08:57:19.520Z,9.50
2018-09-20T08:59:47.668Z,9.17
2018-09-20T09:02:16.028Z,9.37
2018-09-20T09:04:44.448Z,10.77
2018-09-20T09:07:12.648Z,6.47
2018-09-20T09:09:41.040Z,7.83
2018-09-20T09:12:09.431Z,9.93
2018-09-20T09:14:37.868Z,11.47
2018-09-20T09:17:07.020Z,11.20
2018-09-20T09:19:38.794Z,10.40
2018-09-20T09:22:07.812Z,9.47
2018-09-20T09:24:35.950Z,6.50
2018-09-20T09:27:04.568Z,9.93
2018-09-20T09:29:32.802Z,9.13
2018-09-20T09:32:00.848Z,12.23
2018-09-20T09:34:28.920Z,9.97
2018-09-20T09:36:57.020Z,6.03
2018-09-20T09:39:25.268Z,7.63
2018-09-20T09:41:53.608Z,4.97
2018-09-20T09:44:22.661Z,8.20
2018-09-20T09:46:50.880Z,6.07
2018-09-20T09:49:19.208Z,7.63
2018-09-20T09:51:47.448Z,10.07
2018-09-20T09:54:15.852Z,9.87
2018-09-20T09:56:44.128Z,7.93
2018-09-20T09:59:12.368Z,7.73
2018-09-20T10:01:40.563Z,9.10
2018-09-20T10:04:09.908Z,11.43
2018-09-20T10:06:38.281Z,6.87
2018-09-20T10:09:10.628Z,8.63
2018-09-20T10:11:39.488Z,5.67
2018-09-20T10:14:08.261Z,7.37
2018-09-20T10:16:36.911Z,6.87
2018-09-20T10:19:05.268Z,8.87
2018-09-20T10:21:33.733Z,7.33
2018-09-20T10:24:01.954Z,5.10
2018-09-20T10:26:30.993Z,9.73
2018-09-20T10:28:59.272Z,6.00
2018-09-20T10:31:27.489Z,8.17
2018-09-20T10:33:55.787Z,9.97
2018-09-20T10:36:24.061Z,7.50
2018-09-20T10:38:52.229Z,6.47
2018-09-20T10:41:20.428Z,10.70
2018-09-20T10:43:48.581Z,9.37
2018-09-20T10:46:16.882Z,8.10
2018-09-20T10:48:45.120Z,8.83
2018-09-20T10:51:14.272Z,13.93
2018-09-20T10:53:42.440Z,7.60
2018-09-20T10:56:11.421Z,8.97
2018-09-20T10:58:39.637Z,10.60
2018-09-20T11:01:08.981Z,9.10
2018-09-20T11:03:37.793Z,9.80
2018-09-20T11:06:06.069Z,6.83
2018-09-20T11:08:34.281Z,7.00
2018-09-20T11:11:03.000Z,9.13
2018-09-20T11:13:31.569Z,8.43
2018-09-20T11:15:59.901Z,6.57
2018-09-20T11:18:28.229Z,9.97
2018-09-20T11:20:56.609Z,13.50
2018-09-20T11:23:25.109Z,6.60
2018-09-20T11:25:54.119Z,7.37
2018-09-20T11:28:22.569Z,8.87
2018-09-20T11:30:51.869Z,9.13
2018-09-20T11:33:20.177Z,7.50
2018-09-20T11:35:49.169Z,7.40
2018-09-20T11:38:17.669Z,8.27
2018-09-20T11:40:46.169Z,7.77
2018-09-20T11:43:15.238Z,7.93
2018-09-20T11:45:44.229Z,8.90
2018-09-20T11:48:14.029Z,7.77
2018-09-20T11:50:42.629Z,9.27
2018-09-20T11:53:10.988Z,7.33
2018-09-20T11:55:39.449Z,8.47
2018-09-20T11:58:08.429Z,8.23
2018-09-20T12:00:37.029Z,9.67
2018-09-20T12:03:05.449Z,7.57
2018-09-20T12:05:33.870Z,5.83
2018-09-20T12:08:02.757Z,8.97
2018-09-20T12:10:31.269Z,7.90
2018-09-20T12:12:59.908Z,8.87
2018-09-20T12:15:29.201Z,9.93
2018-09-20T12:17:57.487Z,4.50
2018-09-20T12:20:25.990Z,8.50
2018-09-20T12:22:54.309Z,8.57
2018-09-20T12:25:22.569Z,6.07
2018-09-20T12:27:50.832Z,5.93
2018-09-20T12:30:19.017Z,7.07
2018-09-20T12:32:47.434Z,6.17
2018-09-20T12:35:16.690Z,5.97
2018-09-20T12:37:45.069Z,18.70
2018-09-20T12:40:14.569Z,9.67
2018-09-20T12:42:42.953Z,6.97
2018-09-20T12:45:11.316Z,6.53
2018-09-20T12:47:39.629Z,7.27
2018-09-20T12:50:08.177Z,7.93
2018-09-20T12:52:36.528Z,5.47
2018-09-20T12:55:05.048Z,6.40
2018-09-20T12:57:33.348Z,9.80
2018-09-20T13:00:01.529Z,8.37
2018-09-20T13:02:29.809Z,5.97
2018-09-20T13:04:58.146Z,8.37
2018-09-20T13:17:19.246Z,6.33
2018-09-20T13:27:46.488Z,9.60
2018-09-20T13:30:26.878Z,8.10
2018-09-20T13:33:27.319Z,8.97
2018-09-20T13:44:47.659Z,9.00
2018-09-20T13:55:21.578Z,6.97
2018-09-20T13:57:49.906Z,11.40
2018-09-20T14:00:19.765Z,6.27
2018-09-20T14:02:48.038Z,4.97
2018-09-20T14:05:16.985Z,8.10
2018-09-20T14:07:45.286Z,6.23
2018-09-20T14:10:13.725Z,4.33
2018-09-20T14:12:42.005Z,5.10
2018-09-20T14:15:10.185Z,7.03
2018-09-20T14:17:38.425Z,6.40
2018-09-20T14:20:06.778Z,9.80
2018-09-20T14:22:35.037Z,6.37
2018-09-20T14:25:03.378Z,5.20
2018-09-20T14:27:31.665Z,8.67
2018-09-20T14:29:59.865Z,5.30
2018-09-20T14:32:28.185Z,7.60
2018-09-20T14:34:56.845Z,8.47
2018-09-20T14:37:25.307Z,6.40
2018-09-20T14:39:53.397Z,7.37
2018-09-20T14:42:22.237Z,5.37
2018-09-20T14:44:50.585Z,6.53
2018-09-20T14:47:19.513Z,6.23
2018-09-20T14:49:48.325Z,6.27
2018-09-20T14:52:16.671Z,8.03
2018-09-20T14:54:45.289Z,5.40
2018-09-20T14:57:16.106Z,6.10
2018-09-20T14:59:44.279Z,7.30
2018-09-20T15:02:12.840Z,9.13
2018-09-20T15:04:41.206Z,8.00
2018-09-20T15:07:09.398Z,9.20
2018-09-20T15:09:37.649Z,10.10
2018-09-20T15:12:05.929Z,6.40
2018-09-20T15:14:34.206Z,7.73
2018-09-20T15:17:02.338Z,6.07
2018-09-20T15:19:30.538Z,7.07
2018-09-20T15:21:58.734Z,4.37
2018-09-20T15:24:26.935Z,6.77
2018-09-20T15:26:55.266Z,3.27
2018-09-20T15:29:23.438Z,7.20
2018-09-20T15:31:51.638Z,4.40
2018-09-20T15:34:20.699Z,6.37
2018-09-20T15:36:48.779Z,6.17
2018-09-20T15:39:17.017Z,3.77
2018-09-20T15:41:45.138Z,6.90
2018-09-20T15:44:13.355Z,7.80
2018-09-20T15:46:41.638Z,7.00
2018-09-20T15:49:09.999Z,7.30
2018-09-20T15:51:38.267Z,7.90
2018-09-20T15:54:06.647Z,7.33
2018-09-20T15:56:34.847Z,8.33
2018-09-20T15:59:03.219Z,5.47
2018-09-20T16:01:31.387Z,5.70
2018-09-20T16:03:59.627Z,4.80
2018-09-20T16:06:27.827Z,7.40
2018-09-20T16:08:56.107Z,8.00
2018-09-20T16:11:27.630Z,10.93
2018-09-20T16:13:55.866Z,9.87
2018-09-20T16:16:24.119Z,10.30
2018-09-20T16:18:52.279Z,8.70
2018-09-20T16:21:20.339Z,6.63
2018-09-20T16:23:48.419Z,5.60
2018-09-20T16:26:16.429Z,5.83
2018-09-20T16:28:53.612Z,6.97
2018-09-20T16:31:30.618Z,5.50
2018-09-20T16:38:32.054Z,6.13
2018-09-20T16:41:01.789Z,7.43
2018-09-20T16:43:30.162Z,7.10
2018-09-20T16:45:58.687Z,7.33
2018-09-20T16:48:27.734Z,9.17
2018-09-20T16:50:55.769Z,7.77
2018-09-20T16:53:24.252Z,7.30
2018-09-20T16:55:52.233Z,7.33
2018-09-20T16:58:20.277Z,6.70
2018-09-20T17:00:48.627Z,7.13
2018-09-20T17:03:16.602Z,6.37
2018-09-20T17:05:45.507Z,7.00
2018-09-20T17:08:13.588Z,7.63
2018-09-20T17:10:41.788Z,4.03
2018-09-20T17:13:09.809Z,7.47
2018-09-20T17:15:38.016Z,6.17
2018-09-20T17:18:06.259Z,6.23
2018-09-20T17:20:34.314Z,6.03
2018-09-20T17:23:05.232Z,5.17
2018-09-20T17:25:33.359Z,5.13
2018-09-20T17:28:01.284Z,6.47
2018-09-20T17:30:29.337Z,7.37
2018-09-20T17:32:57.264Z,5.93
2018-09-20T17:35:25.614Z,4.83
2018-09-20T17:37:54.004Z,6.03
2018-09-20T17:40:23.849Z,7.53
2018-09-20T17:42:55.289Z,6.70
2018-09-20T17:45:23.421Z,7.83
2018-09-20T17:47:51.551Z,5.00
2018-09-20T17:50:19.769Z,5.60
2018-09-20T17:52:48.569Z,11.73
2018-09-20T17:55:16.929Z,6.53
2018-09-20T17:57:45.403Z,6.97
2018-09-20T18:00:13.363Z,11.23
2018-09-20T18:02:41.319Z,7.90
2018-09-20T18:05:09.227Z,6.47
2018-09-20T18:07:37.198Z,5.67
2018-09-20T18:10:05.196Z,7.37
2018-09-20T18:12:33.287Z,8.07
2018-09-20T18:15:01.307Z,7.77
2018-09-20T18:17:29.337Z,8.23
2018-09-20T18:19:57.300Z,4.67
2018-09-20T18:22:25.368Z,7.17
2018-09-20T18:24:53.288Z,6.53
2018-09-20T18:27:21.302Z,7.83
2018-09-20T18:29:49.225Z,4.97
2018-09-20T18:32:17.242Z,6.07
2018-09-20T18:34:45.266Z,5.30
2018-09-20T18:37:13.272Z,9.70
2018-09-20T18:39:41.232Z,9.37
2018-09-20T18:42:09.237Z,7.47
2018-09-20T18:44:37.190Z,7.60
2018-09-20T18:47:05.378Z,5.97
2018-09-20T18:49:33.345Z,4.87
2018-09-20T18:52:01.405Z,7.43
2018-09-20T18:54:29.415Z,6.70
2018-09-20T18:56:57.402Z,6.87
2018-09-20T18:59:25.390Z,6.37
2018-09-20T19:01:53.395Z,6.40
2018-09-20T19:04:21.391Z,5.53
2018-09-20T19:06:49.432Z,7.23
2018-09-20T19:09:17.452Z,6.53
2018-09-20T19:11:45.498Z,6.63
2018-09-20T19:14:13.567Z,7.20
2018-09-20T19:16:41.537Z,7.50
2018-09-20T19:19:09.592Z,5.60
2018-09-20T19:21:37.567Z,6.87
2018-09-20T19:24:05.562Z,8.87
2018-09-20T19:26:37.267Z,7.90
2018-09-20T19:29:06.099Z,7.27
2018-09-20T19:31:34.117Z,8.67
2018-09-20T19:34:02.777Z,10.83
2018-09-20T19:36:30.716Z,9.23
2018-09-20T19:39:00.304Z,9.67
2018-09-20T20:12:19.232Z,7.37
2018-09-20T20:17:57.083Z,9.10
2018-09-20T20:34:08.304Z,7.27
2018-09-20T20:36:42.444Z,6.50
2018-09-20T20:39:11.843Z,4.73
2018-09-20T20:41:44.073Z,4.43
2018-09-20T20:44:15.202Z,9.70
2018-09-20T20:46:48.483Z,8.07
2018-09-20T20:49:31.663Z,7.43
2018-09-20T20:52:00.450Z,5.40
2018-09-20T20:54:29.451Z,8.17
2018-09-20T20:56:59.850Z,7.37
2018-09-20T20:59:30.109Z,4.40
2018-09-20T21:01:58.456Z,6.47
2018-09-20T21:04:29.651Z,7.00
2018-09-20T21:07:05.859Z,10.30
2018-09-20T21:09:33.901Z,5.23
2018-09-20T21:12:01.893Z,6.10
2018-09-20T21:14:30.128Z,7.17
2018-09-20T21:16:58.567Z,6.33
2018-09-20T21:19:26.727Z,9.27
2018-09-20T21:21:54.837Z,3.53
2018-09-20T21:24:23.692Z,6.90
2018-09-20T21:26:51.740Z,6.47
2018-09-20T21:29:19.825Z,7.77
2018-09-20T21:31:47.798Z,6.73
2018-09-20T21:34:15.772Z,3.97
2018-09-20T21:36:43.825Z,8.67
2018-09-20T21:39:12.343Z,7.60
2018-09-20T21:41:40.870Z,5.37
2018-09-20T21:44:09.044Z,5.37
2018-09-20T21:46:37.438Z,6.73
2018-09-20T21:49:05.550Z,4.90
2018-09-20T21:51:33.580Z,6.23
2018-09-20T21:54:01.493Z,5.37
2018-09-20T21:56:29.540Z,4.93
2018-09-20T21:58:58.089Z,6.57
2018-09-20T22:01:26.299Z,5.23
2018-09-20T22:03:54.251Z,4.23
2018-09-20T22:06:22.276Z,5.37
2018-09-20T22:08:50.325Z,6.73
2018-09-20T22:11:18.474Z,7.13
2018-09-20T22:13:46.575Z,6.50
2018-09-20T22:16:14.795Z,5.37
2018-09-20T22:18:42.865Z,9.03
2018-09-20T22:21:10.906Z,4.47
2018-09-20T22:23:38.905Z,6.13
2018-09-20T22:26:07.222Z,6.67
2018-09-20T22:28:35.230Z,5.37
2018-09-20T22:31:03.349Z,5.93
2018-09-20T22:33:31.338Z,4.97
2018-09-20T22:35:59.561Z,7.73
2018-09-20T22:38:27.538Z,4.50
2018-09-20T22:40:55.788Z,5.43
2018-09-20T22:43:23.724Z,4.03
2018-09-20T22:45:51.737Z,7.77
2018-09-20T22:48:19.701Z,4.93
2018-09-20T22:50:47.881Z,7.30
2018-09-20T22:53:15.806Z,7.57
2018-09-20T22:55:43.792Z,5.23
2018-09-20T22:58:11.736Z,6.93
2018-09-20T23:00:40.105Z,5.77
2018-09-20T23:03:08.225Z,5.30
2018-09-20T23:05:36.339Z,5.63
2018-09-20T23:08:04.553Z,6.33
2018-09-20T23:10:32.653Z,5.23
2018-09-20T23:13:00.646Z,6.10
2018-09-20T23:15:28.707Z,4.13
2018-09-20T23:17:56.900Z,4.43
2018-09-20T23:20:25.190Z,5.93
2018-09-20T23:22:53.101Z,8.20
2018-09-20T23:25:21.128Z,6.77
2018-09-20T23:27:49.163Z,5.47
2018-09-20T23:30:17.200Z,7.47
2018-09-20T23:32:45.248Z,4.27
2018-09-20T23:35:13.205Z,5.93
2018-09-20T23:37:47.881Z,4.10
2018-09-20T23:40:16.056Z,4.77
2018-09-20T23:42:44.231Z,8.43
2018-09-20T23:45:12.268Z,5.43
2018-09-20T23:47:40.269Z,5.47
2018-09-20T23:50:08.248Z,5.17
2018-09-20T23:52:36.287Z,5.90
2018-09-20T23:55:04.305Z,5.53
2018-09-20T23:57:32.309Z,5.47
